Terminal Aerodrome Forecast
Issued by NWS

Home | Current Version | Previous Version | Text Only | Print | Product List | Glossary On
Versions: 1 2 3 4 5 6 7 8 9 10 11 12 13 14 15 16 17 18 19 20 21 22 23 24 25 26 27 28 29 30
000
FTUS44 KEWX 221120
TAFSSF
TAF
KSSF 221120Z 2212/2312 29022G35KT P6SM FEW120
     FM221600 30028G40KT P6SM SKC
     FM222200 30018G30KT P6SM SKC
     FM230100 32005KT P6SM SKC=

USA.gov is the U.S. government's official web portal to all federal, state and local government web resources and services.